createdAt,value
2022-11-30T00:02:02.467Z,2.60
2022-11-30T00:04:29.632Z,2.50
2022-11-30T00:06:57.441Z,2.50
2022-11-30T00:09:24.531Z,2.50
2022-11-30T00:11:51.581Z,2.50
2022-11-30T00:14:19.341Z,2.50
2022-11-30T00:16:47.483Z,2.50
2022-11-30T00:19:14.631Z,2.50
2022-11-30T00:21:42.000Z,2.50
2022-11-30T00:24:09.116Z,2.50
2022-11-30T00:26:36.379Z,2.50
2022-11-30T00:29:04.284Z,2.50
2022-11-30T00:31:31.498Z,2.50
2022-11-30T00:33:58.580Z,2.50
2022-11-30T00:36:25.750Z,2.50
2022-11-30T00:38:52.880Z,2.50
2022-11-30T00:41:20.060Z,2.50
2022-11-30T00:43:47.204Z,2.50
2022-11-30T00:46:14.385Z,2.50
2022-11-30T00:48:41.579Z,2.50
2022-11-30T00:51:09.031Z,2.50
2022-11-30T00:53:37.159Z,2.50
2022-11-30T00:56:04.328Z,2.50
2022-11-30T00:58:31.370Z,2.50
2022-11-30T01:00:58.565Z,2.60
2022-11-30T01:03:25.717Z,2.50
2022-11-30T01:05:52.831Z,2.50
2022-11-30T01:08:20.419Z,2.50
2022-11-30T01:10:53.183Z,2.50
2022-11-30T01:13:20.291Z,2.50
2022-11-30T01:15:47.519Z,2.50
2022-11-30T01:18:14.728Z,2.50
2022-11-30T01:20:42.373Z,2.50
2022-11-30T01:23:09.700Z,2.50
2022-11-30T01:25:36.873Z,2.50
2022-11-30T01:28:04.039Z,2.50
2022-11-30T01:30:31.780Z,2.50
2022-11-30T01:33:02.791Z,2.50
2022-11-30T01:35:29.978Z,2.60
2022-11-30T01:37:57.074Z,2.60
2022-11-30T01:40:24.352Z,2.60
2022-11-30T01:42:51.735Z,2.60
2022-11-30T01:45:18.774Z,2.60
2022-11-30T01:47:49.309Z,2.60
2022-11-30T01:50:17.691Z,2.60
2022-11-30T01:52:45.584Z,2.60
2022-11-30T01:55:20.355Z,2.60
2022-11-30T01:57:49.329Z,2.60
2022-11-30T02:00:16.573Z,2.60
2022-11-30T02:02:48.167Z,2.60
2022-11-30T02:05:15.370Z,2.60
2022-11-30T02:07:42.643Z,2.60
2022-11-30T02:10:16.729Z,2.50
2022-11-30T02:13:01.693Z,2.50
2022-11-30T02:15:29.901Z,2.50
2022-11-30T02:17:58.314Z,2.50
2022-11-30T02:21:01.441Z,2.50
2022-11-30T02:23:43.336Z,2.50
2022-11-30T02:26:16.966Z,2.50
2022-11-30T02:28:50.110Z,2.50
2022-11-30T02:31:19.013Z,2.50
2022-11-30T02:33:46.710Z,2.50
2022-11-30T02:36:13.754Z,2.60
2022-11-30T02:38:40.863Z,2.50
2022-11-30T02:41:08.923Z,2.50
2022-11-30T02:43:35.985Z,2.60
2022-11-30T02:46:03.464Z,2.50
2022-11-30T02:48:43.411Z,2.50
2022-11-30T02:51:10.802Z,2.60
2022-11-30T02:53:37.787Z,2.50
2022-11-30T02:56:05.086Z,2.60
2022-11-30T02:58:32.198Z,2.60
2022-11-30T03:00:59.232Z,2.60
2022-11-30T03:03:26.414Z,2.50
2022-11-30T03:05:53.511Z,2.60
2022-11-30T03:08:20.623Z,2.60
2022-11-30T03:10:47.929Z,2.50
2022-11-30T03:13:16.063Z,2.50
2022-11-30T03:15:43.172Z,2.60
2022-11-30T03:18:10.295Z,2.50
2022-11-30T03:20:40.591Z,2.50
2022-11-30T03:23:07.685Z,2.50
2022-11-30T03:25:34.792Z,2.50
2022-11-30T03:28:02.038Z,2.50
2022-11-30T03:30:29.081Z,2.50
2022-11-30T03:32:56.161Z,2.50
2022-11-30T03:35:25.280Z,2.50
2022-11-30T03:37:52.409Z,2.50
2022-11-30T03:40:20.719Z,2.50
2022-11-30T03:42:47.742Z,2.50
2022-11-30T03:45:14.860Z,2.50
2022-11-30T03:47:41.892Z,2.40
2022-11-30T03:50:09.154Z,2.40
2022-11-30T03:52:36.269Z,2.40
2022-11-30T03:55:03.353Z,2.40
2022-11-30T03:57:30.360Z,2.40
2022-11-30T03:59:57.441Z,2.40
2022-11-30T04:02:24.567Z,2.40
2022-11-30T04:04:51.677Z,2.40
2022-11-30T04:07:18.823Z,2.40
2022-11-30T04:09:46.956Z,2.30
2022-11-30T04:12:14.001Z,2.30
2022-11-30T04:14:41.119Z,2.40
2022-11-30T04:17:08.274Z,2.30
2022-11-30T04:19:35.333Z,2.30
2022-11-30T04:22:02.387Z,2.30
2022-11-30T04:24:29.373Z,2.40
2022-11-30T04:26:57.715Z,2.30
2022-11-30T04:29:24.747Z,2.30
2022-11-30T04:31:51.770Z,2.40
2022-11-30T04:34:20.137Z,2.40
2022-11-30T04:36:47.187Z,2.40
2022-11-30T04:39:16.526Z,2.40
2022-11-30T04:41:43.668Z,2.40
2022-11-30T04:44:10.799Z,2.40
2022-11-30T04:46:37.902Z,2.40
2022-11-30T04:49:05.017Z,2.40
2022-11-30T04:51:32.549Z,2.40
2022-11-30T04:53:59.619Z,2.40
2022-11-30T04:56:26.657Z,2.40
2022-11-30T04:58:53.785Z,2.40
2022-11-30T05:01:20.869Z,2.40
2022-11-30T05:03:47.993Z,2.40
2022-11-30T05:06:15.026Z,2.50
2022-11-30T05:08:42.128Z,2.40
2022-11-30T05:11:09.191Z,2.40
2022-11-30T05:13:37.269Z,2.40
2022-11-30T05:16:04.745Z,2.40
2022-11-30T05:18:31.955Z,2.50
2022-11-30T05:20:59.035Z,2.50
2022-11-30T05:23:26.454Z,2.50
2022-11-30T05:25:53.444Z,2.50
2022-11-30T05:28:20.535Z,2.50
2022-11-30T05:30:47.613Z,2.50
2022-11-30T05:33:14.705Z,2.50
2022-11-30T05:35:41.724Z,2.50
2022-11-30T05:38:08.770Z,2.60
2022-11-30T05:40:35.887Z,2.50
2022-11-30T05:43:03.375Z,2.50
2022-11-30T05:45:30.453Z,2.60
2022-11-30T05:47:58.478Z,2.60
2022-11-30T05:50:25.524Z,2.60
2022-11-30T05:52:56.479Z,2.60
2022-11-30T05:55:23.966Z,2.60
2022-11-30T05:57:51.148Z,2.60
2022-11-30T06:00:18.432Z,2.50
2022-11-30T06:02:45.633Z,2.60
2022-11-30T06:05:13.623Z,2.60
2022-11-30T06:07:40.785Z,2.60
2022-11-30T06:10:08.236Z,2.60
2022-11-30T06:12:35.329Z,2.60
2022-11-30T06:15:02.396Z,2.60
2022-11-30T06:17:29.494Z,2.60
2022-11-30T06:19:56.587Z,2.60
2022-11-30T06:22:23.663Z,2.60
2022-11-30T06:24:50.789Z,2.60
2022-11-30T06:27:17.942Z,2.60
2022-11-30T06:29:45.190Z,2.70
2022-11-30T06:32:13.294Z,2.70
2022-11-30T06:34:40.311Z,2.70
2022-11-30T06:37:07.417Z,2.70
2022-11-30T06:40:19.608Z,2.70
2022-11-30T06:42:47.090Z,2.70
2022-11-30T06:45:14.221Z,2.70
2022-11-30T06:47:41.594Z,2.70
2022-11-30T06:50:08.853Z,2.70
2022-11-30T06:53:14.297Z,2.70
2022-11-30T06:55:43.038Z,2.80
2022-11-30T06:58:10.182Z,2.80
2022-11-30T07:00:37.652Z,2.80
2022-11-30T07:03:05.016Z,2.80
2022-11-30T07:05:52.124Z,2.80
2022-11-30T07:08:19.288Z,2.80
2022-11-30T07:10:46.871Z,2.80
2022-11-30T07:13:14.645Z,2.80
2022-11-30T07:15:41.787Z,2.90
2022-11-30T07:18:09.062Z,2.90
2022-11-30T07:20:36.288Z,2.90
2022-11-30T07:23:22.235Z,2.90
2022-11-30T07:26:07.784Z,2.90
2022-11-30T07:28:37.877Z,2.90
2022-11-30T07:31:21.488Z,2.90
2022-11-30T07:33:48.894Z,2.90
2022-11-30T07:36:16.286Z,2.90
2022-11-30T07:38:43.339Z,2.90
2022-11-30T07:41:10.693Z,2.90
2022-11-30T07:43:37.734Z,3.00
2022-11-30T07:46:04.931Z,2.90
2022-11-30T07:48:33.877Z,3.00
2022-11-30T07:51:08.377Z,2.90
2022-11-30T07:53:35.730Z,2.90
2022-11-30T07:56:06.428Z,2.90
2022-11-30T07:58:33.697Z,2.90
2022-11-30T08:01:01.783Z,2.90
2022-11-30T08:03:32.367Z,2.90
2022-11-30T08:06:03.747Z,2.80
2022-11-30T08:08:34.723Z,2.90
2022-11-30T08:11:02.036Z,2.90
2022-11-30T08:13:29.655Z,2.90
2022-11-30T08:16:00.453Z,2.90
2022-11-30T08:18:27.609Z,2.90
2022-11-30T08:20:59.945Z,3.00
2022-11-30T08:23:37.052Z,3.00
2022-11-30T08:26:06.213Z,3.00
2022-11-30T08:28:35.988Z,3.00
2022-11-30T08:31:03.993Z,3.00
2022-11-30T08:33:31.448Z,3.00
2022-11-30T08:36:12.297Z,3.00
2022-11-30T08:38:39.715Z,3.00
2022-11-30T08:41:07.134Z,3.00
2022-11-30T08:43:34.216Z,3.00
2022-11-30T08:46:21.201Z,3.00
2022-11-30T08:48:58.467Z,3.00
2022-11-30T08:52:15.974Z,3.00
2022-11-30T08:54:32.363Z,3.10
2022-11-30T09:00:32.789Z,3.10
2022-11-30T09:06:38.167Z,3.10
2022-11-30T09:09:29.052Z,3.10
2022-11-30T09:11:56.128Z,3.10
2022-11-30T09:14:23.230Z,3.10
2022-11-30T09:16:50.317Z,3.10
2022-11-30T09:19:17.385Z,3.10
2022-11-30T09:21:51.201Z,3.10
2022-11-30T09:24:20.559Z,3.20
2022-11-30T09:26:47.867Z,3.20
2022-11-30T09:29:15.083Z,3.20
2022-11-30T09:31:42.168Z,3.20
2022-11-30T09:34:10.054Z,3.20
2022-11-30T09:36:38.716Z,3.20
2022-11-30T09:39:13.135Z,3.30
2022-11-30T09:42:02.905Z,3.30
2022-11-30T09:44:37.066Z,3.30
2022-11-30T09:47:35.924Z,3.30
2022-11-30T09:50:14.252Z,3.30
2022-11-30T09:52:43.230Z,3.30
2022-11-30T09:55:10.811Z,3.30
2022-11-30T09:57:44.170Z,3.40
2022-11-30T10:00:21.903Z,3.40
2022-11-30T10:02:53.188Z,3.40
2022-11-30T10:05:25.330Z,3.40
2022-11-30T10:07:58.949Z,3.40
2022-11-30T10:10:32.609Z,3.40
2022-11-30T10:13:50.576Z,3.40
2022-11-30T10:16:46.022Z,3.40
2022-11-30T10:19:28.472Z,3.40
2022-11-30T10:22:05.019Z,3.40
2022-11-30T10:24:32.783Z,3.40
2022-11-30T10:27:00.354Z,3.40
2022-11-30T10:29:32.129Z,3.40
2022-11-30T10:32:00.182Z,3.40
2022-11-30T10:34:30.023Z,3.50
2022-11-30T10:37:12.753Z,3.50
2022-11-30T10:39:45.549Z,3.50
2022-11-30T10:42:14.060Z,3.50
2022-11-30T10:45:09.386Z,3.50
2022-11-30T10:47:38.991Z,3.50
2022-11-30T10:50:07.423Z,3.50
2022-11-30T10:52:55.054Z,3.50
2022-11-30T10:55:30.122Z,3.50
2022-11-30T10:58:20.814Z,3.50
2022-11-30T11:01:08.332Z,3.60
2022-11-30T11:03:36.581Z,3.60
2022-11-30T11:06:13.452Z,3.60
2022-11-30T11:08:42.905Z,3.70
2022-11-30T11:11:32.705Z,3.70
2022-11-30T11:14:33.557Z,3.70
2022-11-30T11:17:04.481Z,3.70
2022-11-30T11:19:35.559Z,3.80
2022-11-30T11:22:46.449Z,3.80
2022-11-30T11:25:58.797Z,3.80
2022-11-30T11:28:26.057Z,3.80
2022-11-30T11:30:54.755Z,3.70
2022-11-30T11:33:39.809Z,3.70
2022-11-30T11:36:06.849Z,3.80
2022-11-30T11:38:45.012Z,3.80
2022-11-30T11:44:36.262Z,3.80
2022-11-30T11:47:04.655Z,3.80
2022-11-30T11:49:32.404Z,3.90
2022-11-30T11:52:06.749Z,3.90
2022-11-30T11:54:39.289Z,3.90
2022-11-30T11:57:10.151Z,3.90
2022-11-30T11:59:50.830Z,3.90
2022-11-30T12:02:27.973Z,3.90
2022-11-30T12:04:59.448Z,3.90
2022-11-30T12:07:29.814Z,3.90
2022-11-30T12:10:50.027Z,3.80
2022-11-30T12:13:09.106Z,3.80
2022-11-30T12:15:42.704Z,3.80
2022-11-30T12:18:24.540Z,3.80
2022-11-30T12:20:56.465Z,3.80
2022-11-30T12:23:27.821Z,3.70
2022-11-30T12:25:57.457Z,3.70
2022-11-30T12:28:24.477Z,3.70
2022-11-30T12:31:11.711Z,3.70
2022-11-30T12:33:41.989Z,3.70
2022-11-30T12:36:13.202Z,3.80
2022-11-30T12:38:40.246Z,3.80
2022-11-30T12:41:30.570Z,3.80
2022-11-30T12:44:00.526Z,3.70
2022-11-30T12:46:46.570Z,3.70
2022-11-30T12:49:30.467Z,3.80
2022-11-30T12:52:04.519Z,3.80
2022-11-30T12:54:32.102Z,3.80
2022-11-30T12:57:13.343Z,3.80
2022-11-30T12:59:55.975Z,3.90
2022-11-30T13:02:26.079Z,3.90
2022-11-30T13:04:58.259Z,3.90
2022-11-30T13:07:45.156Z,3.80
2022-11-30T13:10:12.493Z,3.80
2022-11-30T13:12:42.426Z,3.80
2022-11-30T13:15:20.020Z,3.80
2022-11-30T13:17:48.084Z,3.80
2022-11-30T13:20:17.564Z,3.80
2022-11-30T13:23:05.986Z,3.80
2022-11-30T13:26:07.512Z,3.80
2022-11-30T13:28:37.206Z,3.80
2022-11-30T13:31:28.909Z,3.80
2022-11-30T13:33:55.991Z,3.80
2022-11-30T13:36:39.416Z,3.80
2022-11-30T13:39:16.323Z,3.80
2022-11-30T13:41:47.723Z,3.80
2022-11-30T13:44:22.373Z,3.80
2022-11-30T13:46:50.124Z,3.90
2022-11-30T13:49:34.515Z,3.90
2022-11-30T13:52:22.078Z,3.90
2022-11-30T13:54:50.678Z,3.90
2022-11-30T13:57:40.387Z,3.90
2022-11-30T14:00:27.058Z,3.90
2022-11-30T14:05:40.483Z,3.90
2022-11-30T14:08:27.418Z,3.90
2022-11-30T14:10:55.268Z,3.90
2022-11-30T14:13:31.670Z,3.80
2022-11-30T14:16:00.539Z,3.80
2022-11-30T14:18:45.425Z,3.80
2022-11-30T14:21:16.979Z,3.80
2022-11-30T14:23:59.033Z,3.80
2022-11-30T14:26:28.304Z,3.80
2022-11-30T14:29:01.394Z,3.80
2022-11-30T14:31:30.123Z,3.70
2022-11-30T14:34:09.831Z,3.70
2022-11-30T14:36:38.510Z,3.70
2022-11-30T14:39:23.160Z,3.70
2022-11-30T14:41:50.454Z,3.70
2022-11-30T14:44:17.863Z,3.60
2022-11-30T14:46:45.363Z,3.60
2022-11-30T14:49:20.889Z,3.50
2022-11-30T14:51:52.281Z,3.50
2022-11-30T14:54:25.573Z,3.50
2022-11-30T14:56:52.831Z,3.40
2022-11-30T14:59:27.132Z,3.40
2022-11-30T15:01:57.932Z,3.30
2022-11-30T15:04:25.048Z,3.30
2022-11-30T15:06:52.356Z,3.30
2022-11-30T15:09:21.247Z,3.30
2022-11-30T15:11:48.842Z,3.30
2022-11-30T15:14:16.073Z,3.20
2022-11-30T15:16:50.738Z,3.20
2022-11-30T15:19:25.849Z,3.20
2022-11-30T15:21:53.081Z,3.20
2022-11-30T15:24:20.263Z,3.20
2022-11-30T15:26:49.326Z,3.20
2022-11-30T15:29:19.230Z,3.20
2022-11-30T15:31:47.880Z,3.20
2022-11-30T15:34:19.866Z,3.10
2022-11-30T15:36:46.973Z,3.10
2022-11-30T15:39:16.166Z,3.10
2022-11-30T15:41:43.216Z,3.10
2022-11-30T15:44:21.976Z,3.10
2022-11-30T15:46:54.326Z,3.10
2022-11-30T15:49:25.565Z,3.00
2022-11-30T15:52:04.171Z,3.10
2022-11-30T15:54:48.653Z,3.00
2022-11-30T15:57:16.216Z,3.00
2022-11-30T15:59:43.439Z,3.00
2022-11-30T16:02:23.654Z,3.00
2022-11-30T16:04:56.911Z,3.00
2022-11-30T16:07:31.047Z,3.00
2022-11-30T16:10:07.870Z,2.90
2022-11-30T16:12:35.128Z,2.90
2022-11-30T16:15:02.501Z,2.90
2022-11-30T16:17:30.510Z,2.90
2022-11-30T16:19:57.640Z,2.80
2022-11-30T16:22:24.735Z,2.80
2022-11-30T16:24:52.926Z,2.80
2022-11-30T16:27:20.161Z,2.80
2022-11-30T16:29:52.170Z,2.70
2022-11-30T16:32:19.837Z,2.70
2022-11-30T16:34:47.591Z,2.70
2022-11-30T16:37:14.749Z,2.70
2022-11-30T16:39:41.970Z,2.70
2022-11-30T16:42:12.564Z,2.70
2022-11-30T16:44:39.678Z,2.70
2022-11-30T16:47:06.854Z,2.60
2022-11-30T16:49:33.940Z,2.60
2022-11-30T16:52:00.966Z,2.60
2022-11-30T16:54:28.306Z,2.60
2022-11-30T16:56:55.386Z,2.60
2022-11-30T16:59:22.453Z,2.50
2022-11-30T17:01:53.008Z,2.50
2022-11-30T17:04:23.010Z,2.50
2022-11-30T17:06:54.689Z,2.50
2022-11-30T17:09:24.783Z,2.50
2022-11-30T17:11:53.062Z,2.50
2022-11-30T17:14:21.118Z,2.50
2022-11-30T17:16:54.789Z,2.40
2022-11-30T17:19:23.041Z,2.40
2022-11-30T17:21:50.969Z,2.40
2022-11-30T17:24:18.212Z,2.40
2022-11-30T17:26:45.496Z,2.40
2022-11-30T17:29:13.608Z,2.40
2022-11-30T17:31:40.851Z,2.40
2022-11-30T17:34:08.832Z,2.40
2022-11-30T17:36:36.010Z,2.40
2022-11-30T17:39:06.979Z,2.40
2022-11-30T17:41:34.091Z,2.40
2022-11-30T17:44:04.647Z,2.30
2022-11-30T17:46:31.958Z,2.30
2022-11-30T17:49:00.217Z,2.30
2022-11-30T17:51:27.920Z,2.30
2022-11-30T17:53:55.461Z,2.30
2022-11-30T17:56:22.583Z,2.20
2022-11-30T17:58:50.024Z,2.20
2022-11-30T18:01:24.065Z,2.20
2022-11-30T18:03:51.758Z,2.20
2022-11-30T18:06:19.148Z,2.20
2022-11-30T18:08:48.399Z,2.20
2022-11-30T18:11:16.669Z,2.20
2022-11-30T18:13:43.896Z,2.20
2022-11-30T18:16:15.256Z,2.20
2022-11-30T18:18:47.335Z,2.20
2022-11-30T18:21:15.697Z,2.20
2022-11-30T18:23:43.035Z,2.20
2022-11-30T18:26:28.472Z,2.20
2022-11-30T18:28:56.800Z,2.20
2022-11-30T18:31:24.248Z,2.20
2022-11-30T18:33:59.480Z,2.20
2022-11-30T18:36:27.000Z,2.20
2022-11-30T18:38:54.306Z,2.20
2022-11-30T18:41:22.124Z,2.20
2022-11-30T18:43:49.386Z,2.20
2022-11-30T18:46:16.792Z,2.20
2022-11-30T18:48:43.937Z,2.20
2022-11-30T18:51:11.888Z,2.20
2022-11-30T18:53:39.118Z,2.20
2022-11-30T18:56:09.362Z,2.20
2022-11-30T18:58:36.682Z,2.20
2022-11-30T19:01:08.252Z,2.20
2022-11-30T19:03:36.947Z,2.20
2022-11-30T19:06:04.673Z,2.20
2022-11-30T19:08:31.917Z,2.20
2022-11-30T19:11:05.720Z,2.20
2022-11-30T19:13:34.000Z,2.20
2022-11-30T19:16:02.331Z,2.20
2022-11-30T19:18:29.735Z,2.20
2022-11-30T19:20:58.067Z,2.20
2022-11-30T19:23:25.441Z,2.20
2022-11-30T19:25:52.815Z,2.20
2022-11-30T19:28:19.943Z,2.20
2022-11-30T19:30:47.324Z,2.20
2022-11-30T19:33:14.463Z,2.20
2022-11-30T19:35:41.784Z,2.20
2022-11-30T19:38:09.122Z,2.20
2022-11-30T19:40:37.253Z,2.20
2022-11-30T19:43:04.814Z,2.20
2022-11-30T19:45:32.045Z,2.20
2022-11-30T19:47:59.214Z,2.20
2022-11-30T19:50:26.377Z,2.30
2022-11-30T19:52:53.810Z,2.30
2022-11-30T19:55:21.055Z,2.30
2022-11-30T19:57:48.248Z,2.30
2022-11-30T20:00:15.641Z,2.30
2022-11-30T20:02:42.886Z,2.30
2022-11-30T20:05:09.970Z,2.30
2022-11-30T20:07:37.079Z,2.30
2022-11-30T20:10:04.642Z,2.30
2022-11-30T20:12:31.704Z,2.30
2022-11-30T20:14:58.783Z,2.30
2022-11-30T20:17:25.819Z,2.30
2022-11-30T20:20:21.563Z,2.30
2022-11-30T20:22:48.662Z,2.30
2022-11-30T20:25:15.804Z,2.30
2022-11-30T20:28:12.559Z,2.30
2022-11-30T20:34:43.665Z,2.30
2022-11-30T20:37:41.607Z,2.30
2022-11-30T20:40:09.183Z,2.30
2022-11-30T20:42:36.247Z,2.20
2022-11-30T20:45:26.630Z,2.20
2022-11-30T20:47:53.631Z,2.30
2022-11-30T20:50:20.699Z,2.30
2022-11-30T20:56:51.271Z,2.30
2022-11-30T20:59:42.692Z,2.30
2022-11-30T21:02:09.833Z,2.40
2022-11-30T21:04:36.962Z,2.30
2022-11-30T21:10:48.509Z,2.30
2022-11-30T21:13:15.635Z,2.30
2022-11-30T21:19:36.240Z,2.30
2022-11-30T21:22:34.664Z,2.30
2022-11-30T21:25:01.716Z,2.30
2022-11-30T21:27:28.814Z,2.30
2022-11-30T21:29:56.005Z,2.30
2022-11-30T21:32:23.085Z,2.30
2022-11-30T21:34:53.339Z,2.20
2022-11-30T21:37:20.544Z,2.30
2022-11-30T21:39:47.690Z,2.30
2022-11-30T21:42:20.747Z,2.20
2022-11-30T21:44:48.074Z,2.20
2022-11-30T21:47:45.563Z,2.20
2022-11-30T21:50:12.727Z,2.20
2022-11-30T21:52:39.842Z,2.20
2022-11-30T21:55:10.726Z,2.20
2022-11-30T21:57:37.833Z,2.20
2022-11-30T22:00:05.160Z,2.30
2022-11-30T22:02:34.572Z,2.20
2022-11-30T22:05:01.694Z,2.30
2022-11-30T22:07:31.832Z,2.20
2022-11-30T22:10:01.093Z,2.20
2022-11-30T22:12:28.158Z,2.30
2022-11-30T22:15:26.579Z,2.20
2022-11-30T22:21:53.365Z,2.30
2022-11-30T22:25:01.988Z,2.30
2022-11-30T22:27:29.007Z,2.20
2022-11-30T22:29:56.102Z,2.20
2022-11-30T22:33:07.603Z,2.20
2022-11-30T22:35:34.629Z,2.20
2022-11-30T22:38:01.683Z,2.20
2022-11-30T22:44:29.291Z,2.30
2022-11-30T22:47:15.761Z,2.20
2022-11-30T22:49:42.942Z,2.20
2022-11-30T22:52:10.055Z,2.20
2022-11-30T22:55:04.657Z,2.20
2022-11-30T22:57:31.882Z,2.20
2022-11-30T22:59:58.947Z,2.20
2022-11-30T23:06:26.175Z,2.20
2022-11-30T23:08:54.263Z,2.20
2022-11-30T23:11:22.626Z,2.20
2022-11-30T23:13:49.680Z,2.30
2022-11-30T23:16:46.651Z,2.20
2022-11-30T23:19:13.724Z,2.20
2022-11-30T23:21:42.091Z,2.20
2022-11-30T23:28:15.493Z,2.20
2022-11-30T23:30:42.572Z,2.10
2022-11-30T23:33:51.948Z,2.10
2022-11-30T23:36:19.148Z,2.10
2022-11-30T23:38:49.176Z,2.10
2022-11-30T23:45:17.173Z,2.00
2022-11-30T23:47:52.334Z,2.00
2022-11-30T23:50:19.420Z,2.00
2022-11-30T23:52:46.513Z,2.00
2022-11-30T23:59:13.264Z,2.00
